sensor_id;sensor_type;location;lat;lon;timestamp;P1;durP1;ratioP1;P2;durP2;ratioP2
4214;SDS011;2121;48.062;7.850;2022-07-06T00:01:51;2.40;;;2.30;;
4214;SDS011;2121;48.062;7.850;2022-07-06T00:04:17;2.37;;;2.17;;
4214;SDS011;2121;48.062;7.850;2022-07-06T00:06:44;2.10;;;2.00;;
4214;SDS011;2121;48.062;7.850;2022-07-06T00:09:10;2.50;;;2.30;;
4214;SDS011;2121;48.062;7.850;2022-07-06T00:11:36;3.80;;;2.67;;
4214;SDS011;2121;48.062;7.850;2022-07-06T00:14:02;2.70;;;2.30;;
4214;SDS011;2121;48.062;7.850;2022-07-06T00:16:28;2.67;;;2.47;;
4214;SDS011;2121;48.062;7.850;2022-07-06T00:18:55;2.43;;;2.23;;
4214;SDS011;2121;48.062;7.850;2022-07-06T00:21:21;2.10;;;2.00;;
4214;SDS011;2121;48.062;7.850;2022-07-06T00:23:47;2.30;;;2.20;;
4214;SDS011;2121;48.062;7.850;2022-07-06T00:26:13;2.57;;;2.37;;
4214;SDS011;2121;48.062;7.850;2022-07-06T00:28:39;2.40;;;2.30;;
4214;SDS011;2121;48.062;7.850;2022-07-06T00:31:05;2.23;;;2.13;;
4214;SDS011;2121;48.062;7.850;2022-07-06T00:33:31;3.30;;;2.40;;
4214;SDS011;2121;48.062;7.850;2022-07-06T00:35:57;6.87;;;2.13;;
4214;SDS011;2121;48.062;7.850;2022-07-06T00:38:23;2.80;;;2.50;;
4214;SDS011;2121;48.062;7.850;2022-07-06T00:40:49;3.50;;;2.60;;
4214;SDS011;2121;48.062;7.850;2022-07-06T00:43:15;7.07;;;3.60;;
4214;SDS011;2121;48.062;7.850;2022-07-06T00:45:41;5.50;;;2.23;;
4214;SDS011;2121;48.062;7.850;2022-07-06T00:48:06;4.63;;;2.77;;
4214;SDS011;2121;48.062;7.850;2022-07-06T00:50:33;2.77;;;2.57;;
4214;SDS011;2121;48.062;7.850;2022-07-06T00:53:03;3.50;;;2.00;;
4214;SDS011;2121;48.062;7.850;2022-07-06T00:55:34;3.43;;;3.10;;
4214;SDS011;2121;48.062;7.850;2022-07-06T00:58:06;3.83;;;2.67;;
4214;SDS011;2121;48.062;7.850;2022-07-06T01:00:34;2.87;;;2.67;;
4214;SDS011;2121;48.062;7.850;2022-07-06T01:03:00;7.50;;;3.10;;
4214;SDS011;2121;48.062;7.850;2022-07-06T01:05:27;3.07;;;2.77;;
4214;SDS011;2121;48.062;7.850;2022-07-06T01:07:53;4.80;;;2.57;;
4214;SDS011;2121;48.062;7.850;2022-07-06T01:10:20;2.43;;;2.33;;
4214;SDS011;2121;48.062;7.850;2022-07-06T01:12:47;5.20;;;2.93;;
4214;SDS011;2121;48.062;7.850;2022-07-06T01:15:14;5.90;;;2.73;;
4214;SDS011;2121;48.062;7.850;2022-07-06T01:17:43;4.50;;;2.87;;
4214;SDS011;2121;48.062;7.850;2022-07-06T01:22:45;3.47;;;2.57;;
4214;SDS011;2121;48.062;7.850;2022-07-06T01:25:12;11.93;;;3.20;;
4214;SDS011;2121;48.062;7.850;2022-07-06T01:27:39;3.10;;;2.83;;
4214;SDS011;2121;48.062;7.850;2022-07-06T01:30:10;2.80;;;2.60;;
4214;SDS011;2121;48.062;7.850;2022-07-06T01:32:40;2.93;;;2.33;;
4214;SDS011;2121;48.062;7.850;2022-07-06T01:35:08;3.50;;;2.50;;
4214;SDS011;2121;48.062;7.850;2022-07-06T01:37:38;10.60;;;3.30;;
4214;SDS011;2121;48.062;7.850;2022-07-06T01:40:05;3.20;;;2.90;;
4214;SDS011;2121;48.062;7.850;2022-07-06T01:42:33;3.73;;;2.90;;
4214;SDS011;2121;48.062;7.850;2022-07-06T01:45:00;2.80;;;2.60;;
4214;SDS011;2121;48.062;7.850;2022-07-06T01:47:29;4.23;;;2.70;;
4214;SDS011;2121;48.062;7.850;2022-07-06T01:49:57;4.00;;;2.90;;
4214;SDS011;2121;48.062;7.850;2022-07-06T01:52:24;6.73;;;3.77;;
4214;SDS011;2121;48.062;7.850;2022-07-06T01:54:51;2.83;;;2.43;;
4214;SDS011;2121;48.062;7.850;2022-07-06T01:57:17;3.20;;;3.00;;
4214;SDS011;2121;48.062;7.850;2022-07-06T01:59:42;12.17;;;3.47;;
4214;SDS011;2121;48.062;7.850;2022-07-06T02:02:08;2.87;;;2.67;;
4214;SDS011;2121;48.062;7.850;2022-07-06T02:04:34;3.03;;;2.73;;
4214;SDS011;2121;48.062;7.850;2022-07-06T02:07:00;2.83;;;2.63;;
4214;SDS011;2121;48.062;7.850;2022-07-06T02:09:26;2.97;;;2.77;;
4214;SDS011;2121;48.062;7.850;2022-07-06T02:11:52;2.80;;;2.60;;
4214;SDS011;2121;48.062;7.850;2022-07-06T02:14:18;2.90;;;2.70;;
4214;SDS011;2121;48.062;7.850;2022-07-06T02:16:43;3.10;;;2.90;;
4214;SDS011;2121;48.062;7.850;2022-07-06T02:19:09;3.53;;;3.00;;
4214;SDS011;2121;48.062;7.850;2022-07-06T02:21:36;3.27;;;2.87;;
4214;SDS011;2121;48.062;7.850;2022-07-06T02:24:01;3.67;;;2.90;;
4214;SDS011;2121;48.062;7.850;2022-07-06T02:26:27;3.63;;;3.33;;
4214;SDS011;2121;48.062;7.850;2022-07-06T02:28:53;4.07;;;3.37;;
4214;SDS011;2121;48.062;7.850;2022-07-06T02:31:19;4.90;;;3.13;;
4214;SDS011;2121;48.062;7.850;2022-07-06T02:33:44;3.03;;;2.83;;
4214;SDS011;2121;48.062;7.850;2022-07-06T02:36:10;3.27;;;2.97;;
4214;SDS011;2121;48.062;7.850;2022-07-06T02:38:36;3.10;;;2.73;;
4214;SDS011;2121;48.062;7.850;2022-07-06T02:41:02;5.07;;;3.30;;
4214;SDS011;2121;48.062;7.850;2022-07-06T02:43:28;3.03;;;2.73;;
4214;SDS011;2121;48.062;7.850;2022-07-06T02:45:53;3.20;;;2.97;;
4214;SDS011;2121;48.062;7.850;2022-07-06T02:48:19;2.80;;;2.47;;
4214;SDS011;2121;48.062;7.850;2022-07-06T02:50:46;5.77;;;2.93;;
4214;SDS011;2121;48.062;7.850;2022-07-06T02:53:12;3.23;;;3.03;;
4214;SDS011;2121;48.062;7.850;2022-07-06T02:55:38;2.97;;;2.73;;
4214;SDS011;2121;48.062;7.850;2022-07-06T02:58:04;3.23;;;2.93;;
4214;SDS011;2121;48.062;7.850;2022-07-06T03:00:29;3.20;;;2.90;;
4214;SDS011;2121;48.062;7.850;2022-07-06T03:02:55;4.23;;;2.90;;
4214;SDS011;2121;48.062;7.850;2022-07-06T03:05:21;2.73;;;2.63;;
4214;SDS011;2121;48.062;7.850;2022-07-06T03:07:47;4.27;;;3.13;;
4214;SDS011;2121;48.062;7.850;2022-07-06T03:10:13;3.27;;;2.97;;
4214;SDS011;2121;48.062;7.850;2022-07-06T03:12:39;4.20;;;3.80;;
4214;SDS011;2121;48.062;7.850;2022-07-06T03:15:04;4.10;;;3.37;;
4214;SDS011;2121;48.062;7.850;2022-07-06T03:17:31;3.60;;;3.13;;
4214;SDS011;2121;48.062;7.850;2022-07-06T03:19:56;3.30;;;3.00;;
4214;SDS011;2121;48.062;7.850;2022-07-06T03:22:22;3.97;;;3.40;;
4214;SDS011;2121;48.062;7.850;2022-07-06T03:24:48;2.90;;;2.70;;
4214;SDS011;2121;48.062;7.850;2022-07-06T03:27:14;3.37;;;3.07;;
4214;SDS011;2121;48.062;7.850;2022-07-06T03:29:40;3.23;;;3.03;;
4214;SDS011;2121;48.062;7.850;2022-07-06T03:32:06;3.60;;;3.30;;
4214;SDS011;2121;48.062;7.850;2022-07-06T03:34:32;3.40;;;3.20;;
4214;SDS011;2121;48.062;7.850;2022-07-06T03:36:58;4.57;;;3.63;;
4214;SDS011;2121;48.062;7.850;2022-07-06T03:39:23;3.80;;;3.50;;
4214;SDS011;2121;48.062;7.850;2022-07-06T03:41:49;8.43;;;4.60;;
4214;SDS011;2121;48.062;7.850;2022-07-06T03:44:15;4.10;;;3.80;;
4214;SDS011;2121;48.062;7.850;2022-07-06T03:46:40;7.53;;;3.30;;
4214;SDS011;2121;48.062;7.850;2022-07-06T03:49:06;3.30;;;2.80;;
4214;SDS011;2121;48.062;7.850;2022-07-06T03:51:32;2.80;;;2.60;;
4214;SDS011;2121;48.062;7.850;2022-07-06T03:53:58;10.43;;;3.43;;
4214;SDS011;2121;48.062;7.850;2022-07-06T03:56:23;13.73;;;5.07;;
4214;SDS011;2121;48.062;7.850;2022-07-06T03:58:59;3.60;;;3.03;;
4214;SDS011;2121;48.062;7.850;2022-07-06T04:01:26;3.30;;;3.07;;
4214;SDS011;2121;48.062;7.850;2022-07-06T04:03:53;3.83;;;3.53;;
4214;SDS011;2121;48.062;7.850;2022-07-06T04:06:19;5.90;;;4.10;;
4214;SDS011;2121;48.062;7.850;2022-07-06T04:08:45;4.63;;;3.37;;
4214;SDS011;2121;48.062;7.850;2022-07-06T04:11:11;3.57;;;2.90;;
4214;SDS011;2121;48.062;7.850;2022-07-06T04:13:37;3.00;;;2.77;;
4214;SDS011;2121;48.062;7.850;2022-07-06T04:16:04;6.80;;;3.27;;
4214;SDS011;2121;48.062;7.850;2022-07-06T04:18:31;3.37;;;3.20;;
4214;SDS011;2121;48.062;7.850;2022-07-06T04:20:57;5.03;;;3.50;;
4214;SDS011;2121;48.062;7.850;2022-07-06T04:23:23;4.03;;;3.20;;
4214;SDS011;2121;48.062;7.850;2022-07-06T04:25:49;3.23;;;3.03;;
4214;SDS011;2121;48.062;7.850;2022-07-06T04:28:15;3.30;;;3.00;;
4214;SDS011;2121;48.062;7.850;2022-07-06T04:30:41;8.93;;;3.17;;
4214;SDS011;2121;48.062;7.850;2022-07-06T04:33:07;3.83;;;3.53;;
4214;SDS011;2121;48.062;7.850;2022-07-06T04:35:33;5.80;;;3.90;;
4214;SDS011;2121;48.062;7.850;2022-07-06T04:37:59;4.30;;;3.90;;
4214;SDS011;2121;48.062;7.850;2022-07-06T04:40:25;4.53;;;3.07;;
4214;SDS011;2121;48.062;7.850;2022-07-06T04:42:51;4.50;;;3.33;;
4214;SDS011;2121;48.062;7.850;2022-07-06T04:45:17;3.40;;;3.17;;
4214;SDS011;2121;48.062;7.850;2022-07-06T04:47:42;4.00;;;3.60;;
4214;SDS011;2121;48.062;7.850;2022-07-06T04:50:09;3.33;;;3.03;;
4214;SDS011;2121;48.062;7.850;2022-07-06T04:52:35;4.27;;;3.80;;
4214;SDS011;2121;48.062;7.850;2022-07-06T04:55:01;4.10;;;3.30;;
4214;SDS011;2121;48.062;7.850;2022-07-06T04:57:27;3.30;;;3.00;;
4214;SDS011;2121;48.062;7.850;2022-07-06T04:59:54;5.43;;;3.83;;
4214;SDS011;2121;48.062;7.850;2022-07-06T05:02:21;4.70;;;3.40;;
4214;SDS011;2121;48.062;7.850;2022-07-06T05:04:46;3.77;;;3.47;;
4214;SDS011;2121;48.062;7.850;2022-07-06T05:07:12;4.80;;;3.30;;
4214;SDS011;2121;48.062;7.850;2022-07-06T05:09:38;3.70;;;3.40;;
4214;SDS011;2121;48.062;7.850;2022-07-06T05:12:04;3.53;;;3.23;;
4214;SDS011;2121;48.062;7.850;2022-07-06T05:14:30;3.57;;;3.20;;
4214;SDS011;2121;48.062;7.850;2022-07-06T05:16:56;3.30;;;3.10;;
4214;SDS011;2121;48.062;7.850;2022-07-06T05:19:22;6.43;;;3.13;;
4214;SDS011;2121;48.062;7.850;2022-07-06T05:21:48;6.80;;;3.33;;
4214;SDS011;2121;48.062;7.850;2022-07-06T05:24:13;5.57;;;3.30;;
4214;SDS011;2121;48.062;7.850;2022-07-06T05:26:40;3.80;;;3.50;;
4214;SDS011;2121;48.062;7.850;2022-07-06T05:29:07;5.83;;;3.97;;
4214;SDS011;2121;48.062;7.850;2022-07-06T05:31:32;3.40;;;3.03;;
4214;SDS011;2121;48.062;7.850;2022-07-06T05:33:58;3.60;;;3.17;;
4214;SDS011;2121;48.062;7.850;2022-07-06T05:36:24;8.73;;;3.50;;
4214;SDS011;2121;48.062;7.850;2022-07-06T05:38:50;5.20;;;3.10;;
4214;SDS011;2121;48.062;7.850;2022-07-06T05:41:15;4.30;;;3.30;;
4214;SDS011;2121;48.062;7.850;2022-07-06T05:43:41;3.70;;;2.70;;
4214;SDS011;2121;48.062;7.850;2022-07-06T05:46:07;2.63;;;2.47;;
4214;SDS011;2121;48.062;7.850;2022-07-06T05:48:33;3.20;;;3.03;;
4214;SDS011;2121;48.062;7.850;2022-07-06T05:51:17;3.20;;;2.90;;
4214;SDS011;2121;48.062;7.850;2022-07-06T05:53:43;2.90;;;2.70;;
4214;SDS011;2121;48.062;7.850;2022-07-06T05:56:09;3.77;;;3.37;;
4214;SDS011;2121;48.062;7.850;2022-07-06T05:58:34;6.27;;;2.93;;
4214;SDS011;2121;48.062;7.850;2022-07-06T06:01:00;4.30;;;3.80;;
4214;SDS011;2121;48.062;7.850;2022-07-06T06:03:26;3.97;;;3.50;;
4214;SDS011;2121;48.062;7.850;2022-07-06T06:05:52;3.27;;;3.00;;
4214;SDS011;2121;48.062;7.850;2022-07-06T06:08:17;4.00;;;3.40;;
4214;SDS011;2121;48.062;7.850;2022-07-06T06:10:43;3.87;;;3.43;;
4214;SDS011;2121;48.062;7.850;2022-07-06T06:13:09;4.87;;;3.30;;
4214;SDS011;2121;48.062;7.850;2022-07-06T06:15:35;5.80;;;3.83;;
4214;SDS011;2121;48.062;7.850;2022-07-06T06:18:01;3.90;;;3.50;;
4214;SDS011;2121;48.062;7.850;2022-07-06T06:20:28;6.97;;;3.90;;
4214;SDS011;2121;48.062;7.850;2022-07-06T06:22:55;4.17;;;3.87;;
4214;SDS011;2121;48.062;7.850;2022-07-06T06:25:30;11.23;;;4.27;;
4214;SDS011;2121;48.062;7.850;2022-07-06T06:27:58;4.40;;;4.00;;
4214;SDS011;2121;48.062;7.850;2022-07-06T06:30:24;6.00;;;4.03;;
4214;SDS011;2121;48.062;7.850;2022-07-06T06:32:50;5.87;;;4.50;;
4214;SDS011;2121;48.062;7.850;2022-07-06T06:35:17;3.97;;;3.67;;
4214;SDS011;2121;48.062;7.850;2022-07-06T06:37:42;4.80;;;3.87;;
4214;SDS011;2121;48.062;7.850;2022-07-06T06:40:08;6.93;;;4.20;;
4214;SDS011;2121;48.062;7.850;2022-07-06T06:42:35;5.47;;;4.97;;
4214;SDS011;2121;48.062;7.850;2022-07-06T06:45:02;5.07;;;4.57;;
4214;SDS011;2121;48.062;7.850;2022-07-06T06:47:29;4.97;;;4.40;;
4214;SDS011;2121;48.062;7.850;2022-07-06T06:49:55;4.27;;;3.87;;
4214;SDS011;2121;48.062;7.850;2022-07-06T06:52:21;4.87;;;4.47;;
4214;SDS011;2121;48.062;7.850;2022-07-06T06:54:47;4.90;;;4.50;;
4214;SDS011;2121;48.062;7.850;2022-07-06T06:57:12;5.53;;;4.23;;
4214;SDS011;2121;48.062;7.850;2022-07-06T06:59:38;7.40;;;4.03;;
4214;SDS011;2121;48.062;7.850;2022-07-06T07:02:04;4.23;;;3.93;;
4214;SDS011;2121;48.062;7.850;2022-07-06T07:04:30;6.50;;;4.70;;
4214;SDS011;2121;48.062;7.850;2022-07-06T07:06:56;6.80;;;4.50;;
4214;SDS011;2121;48.062;7.850;2022-07-06T07:09:22;5.17;;;4.73;;
4214;SDS011;2121;48.062;7.850;2022-07-06T07:11:48;5.70;;;5.20;;
4214;SDS011;2121;48.062;7.850;2022-07-06T07:14:13;12.13;;;4.37;;
4214;SDS011;2121;48.062;7.850;2022-07-06T07:16:39;4.37;;;3.97;;
4214;SDS011;2121;48.062;7.850;2022-07-06T07:19:05;5.90;;;4.10;;
4214;SDS011;2121;48.062;7.850;2022-07-06T07:21:30;8.90;;;4.30;;
4214;SDS011;2121;48.062;7.850;2022-07-06T07:23:56;4.10;;;3.80;;
4214;SDS011;2121;48.062;7.850;2022-07-06T07:26:22;4.97;;;4.47;;
4214;SDS011;2121;48.062;7.850;2022-07-06T07:28:48;9.20;;;4.17;;
4214;SDS011;2121;48.062;7.850;2022-07-06T07:31:13;4.97;;;3.40;;
4214;SDS011;2121;48.062;7.850;2022-07-06T07:33:39;7.10;;;3.70;;
4214;SDS011;2121;48.062;7.850;2022-07-06T07:36:05;4.07;;;3.50;;
4214;SDS011;2121;48.062;7.850;2022-07-06T07:38:31;8.77;;;4.10;;
4214;SDS011;2121;48.062;7.850;2022-07-06T07:40:56;7.83;;;4.60;;
4214;SDS011;2121;48.062;7.850;2022-07-06T07:43:22;7.93;;;4.60;;
4214;SDS011;2121;48.062;7.850;2022-07-06T07:45:48;5.93;;;4.13;;
4214;SDS011;2121;48.062;7.850;2022-07-06T07:48:14;4.37;;;4.07;;
4214;SDS011;2121;48.062;7.850;2022-07-06T07:50:40;5.77;;;4.03;;
4214;SDS011;2121;48.062;7.850;2022-07-06T07:53:07;6.37;;;4.57;;
4214;SDS011;2121;48.062;7.850;2022-07-06T07:55:33;5.43;;;4.10;;
4214;SDS011;2121;48.062;7.850;2022-07-06T07:57:58;6.33;;;4.50;;
4214;SDS011;2121;48.062;7.850;2022-07-06T08:00:24;6.53;;;5.50;;
4214;SDS011;2121;48.062;7.850;2022-07-06T08:02:51;3.97;;;3.67;;
4214;SDS011;2121;48.062;7.850;2022-07-06T08:05:17;3.97;;;3.60;;
4214;SDS011;2121;48.062;7.850;2022-07-06T08:07:43;4.70;;;4.20;;
4214;SDS011;2121;48.062;7.850;2022-07-06T08:10:09;3.93;;;3.63;;
4214;SDS011;2121;48.062;7.850;2022-07-06T08:12:36;8.50;;;3.77;;
4214;SDS011;2121;48.062;7.850;2022-07-06T08:15:02;4.93;;;4.43;;
4214;SDS011;2121;48.062;7.850;2022-07-06T08:17:29;4.30;;;3.90;;
4214;SDS011;2121;48.062;7.850;2022-07-06T08:19:55;6.33;;;4.20;;
4214;SDS011;2121;48.062;7.850;2022-07-06T08:22:22;9.10;;;3.83;;
4214;SDS011;2121;48.062;7.850;2022-07-06T08:24:48;10.23;;;4.00;;
4214;SDS011;2121;48.062;7.850;2022-07-06T08:27:14;6.73;;;3.83;;
4214;SDS011;2121;48.062;7.850;2022-07-06T08:29:40;13.30;;;4.60;;
4214;SDS011;2121;48.062;7.850;2022-07-06T08:32:06;5.10;;;3.80;;
4214;SDS011;2121;48.062;7.850;2022-07-06T08:34:32;4.63;;;3.63;;
4214;SDS011;2121;48.062;7.850;2022-07-06T08:36:58;6.10;;;4.03;;
4214;SDS011;2121;48.062;7.850;2022-07-06T08:39:23;4.23;;;3.83;;
4214;SDS011;2121;48.062;7.850;2022-07-06T08:41:49;4.33;;;3.93;;
4214;SDS011;2121;48.062;7.850;2022-07-06T08:44:16;6.10;;;3.50;;
4214;SDS011;2121;48.062;7.850;2022-07-06T08:46:43;4.53;;;4.13;;
4214;SDS011;2121;48.062;7.850;2022-07-06T08:49:14;5.30;;;3.50;;
4214;SDS011;2121;48.062;7.850;2022-07-06T08:51:41;4.27;;;3.67;;
4214;SDS011;2121;48.062;7.850;2022-07-06T08:54:08;11.40;;;3.47;;
4214;SDS011;2121;48.062;7.850;2022-07-06T08:56:36;4.03;;;3.20;;
4214;SDS011;2121;48.062;7.850;2022-07-06T08:59:04;3.50;;;3.20;;
4214;SDS011;2121;48.062;7.850;2022-07-06T09:01:32;6.83;;;3.33;;
4214;SDS011;2121;48.062;7.850;2022-07-06T09:03:58;3.53;;;3.23;;
4214;SDS011;2121;48.062;7.850;2022-07-06T09:06:28;3.67;;;3.30;;
4214;SDS011;2121;48.062;7.850;2022-07-06T09:08:55;4.20;;;3.37;;
4214;SDS011;2121;48.062;7.850;2022-07-06T09:11:22;9.40;;;3.93;;
4214;SDS011;2121;48.062;7.850;2022-07-06T09:13:50;5.27;;;3.30;;
4214;SDS011;2121;48.062;7.850;2022-07-06T09:16:16;4.20;;;3.00;;
4214;SDS011;2121;48.062;7.850;2022-07-06T09:18:45;7.67;;;2.90;;
4214;SDS011;2121;48.062;7.850;2022-07-06T09:21:19;3.07;;;2.83;;
4214;SDS011;2121;48.062;7.850;2022-07-06T09:23:53;3.20;;;2.90;;
4214;SDS011;2121;48.062;7.850;2022-07-06T09:26:21;7.00;;;3.20;;
4214;SDS011;2121;48.062;7.850;2022-07-06T09:28:48;3.27;;;3.00;;
4214;SDS011;2121;48.062;7.850;2022-07-06T09:31:14;3.17;;;2.87;;
4214;SDS011;2121;48.062;7.850;2022-07-06T09:33:52;3.77;;;3.50;;
4214;SDS011;2121;48.062;7.850;2022-07-06T09:36:39;4.80;;;2.90;;
4214;SDS011;2121;48.062;7.850;2022-07-06T09:41:54;5.63;;;3.10;;
4214;SDS011;2121;48.062;7.850;2022-07-06T09:46:53;3.40;;;2.93;;
4214;SDS011;2121;48.062;7.850;2022-07-06T09:49:22;6.73;;;2.67;;
4214;SDS011;2121;48.062;7.850;2022-07-06T09:51:55;2.53;;;2.27;;
4214;SDS011;2121;48.062;7.850;2022-07-06T09:54:24;7.47;;;2.43;;
4214;SDS011;2121;48.062;7.850;2022-07-06T09:56:50;4.30;;;2.33;;
4214;SDS011;2121;48.062;7.850;2022-07-06T09:59:18;4.07;;;2.57;;
4214;SDS011;2121;48.062;7.850;2022-07-06T10:01:56;4.53;;;2.40;;
4214;SDS011;2121;48.062;7.850;2022-07-06T10:04:25;2.87;;;2.60;;
4214;SDS011;2121;48.062;7.850;2022-07-06T10:06:51;6.10;;;2.30;;
4214;SDS011;2121;48.062;7.850;2022-07-06T10:09:19;2.60;;;2.50;;
4214;SDS011;2121;48.062;7.850;2022-07-06T10:11:50;3.53;;;2.10;;
4214;SDS011;2121;48.062;7.850;2022-07-06T10:14:20;2.83;;;2.63;;
4214;SDS011;2121;48.062;7.850;2022-07-06T10:16:51;4.80;;;2.17;;
4214;SDS011;2121;48.062;7.850;2022-07-06T10:19:19;2.43;;;2.23;;
4214;SDS011;2121;48.062;7.850;2022-07-06T10:21:46;3.13;;;2.80;;
4214;SDS011;2121;48.062;7.850;2022-07-06T10:24:12;5.33;;;2.87;;
4214;SDS011;2121;48.062;7.850;2022-07-06T10:26:40;5.37;;;3.60;;
4214;SDS011;2121;48.062;7.850;2022-07-06T10:29:07;5.70;;;3.30;;
4214;SDS011;2121;48.062;7.850;2022-07-06T10:31:34;3.03;;;2.83;;
4214;SDS011;2121;48.062;7.850;2022-07-06T10:34:06;2.63;;;2.17;;
4214;SDS011;2121;48.062;7.850;2022-07-06T10:36:41;8.20;;;2.50;;
4214;SDS011;2121;48.062;7.850;2022-07-06T10:39:09;2.90;;;2.60;;
4214;SDS011;2121;48.062;7.850;2022-07-06T10:41:55;2.87;;;2.63;;
4214;SDS011;2121;48.062;7.850;2022-07-06T10:44:23;5.43;;;2.50;;
4214;SDS011;2121;48.062;7.850;2022-07-06T10:46:55;5.30;;;2.80;;
4214;SDS011;2121;48.062;7.850;2022-07-06T10:49:23;5.67;;;3.40;;
4214;SDS011;2121;48.062;7.850;2022-07-06T10:51:51;7.27;;;2.70;;
4214;SDS011;2121;48.062;7.850;2022-07-06T10:54:19;4.43;;;2.83;;
4214;SDS011;2121;48.062;7.850;2022-07-06T10:56:48;3.83;;;2.60;;
4214;SDS011;2121;48.062;7.850;2022-07-06T10:59:22;6.30;;;2.60;;
4214;SDS011;2121;48.062;7.850;2022-07-06T11:04:36;3.17;;;2.97;;
4214;SDS011;2121;48.062;7.850;2022-07-06T11:07:07;3.00;;;2.10;;
4214;SDS011;2121;48.062;7.850;2022-07-06T11:09:35;4.43;;;3.87;;
4214;SDS011;2121;48.062;7.850;2022-07-06T11:15:00;5.10;;;2.63;;
4214;SDS011;2121;48.062;7.850;2022-07-06T11:17:27;3.83;;;2.50;;
4214;SDS011;2121;48.062;7.850;2022-07-06T11:19:57;4.10;;;2.60;;
4214;SDS011;2121;48.062;7.850;2022-07-06T11:22:35;2.80;;;2.60;;
4214;SDS011;2121;48.062;7.850;2022-07-06T11:25:03;4.00;;;3.10;;
4214;SDS011;2121;48.062;7.850;2022-07-06T11:27:33;2.43;;;2.23;;
4214;SDS011;2121;48.062;7.850;2022-07-06T11:30:00;2.60;;;2.40;;
4214;SDS011;2121;48.062;7.850;2022-07-06T11:32:26;3.70;;;2.73;;
4214;SDS011;2121;48.062;7.850;2022-07-06T11:34:52;3.13;;;2.33;;
4214;SDS011;2121;48.062;7.850;2022-07-06T11:37:18;3.40;;;2.43;;
4214;SDS011;2121;48.062;7.850;2022-07-06T11:39:46;6.78;;;2.58;;
4214;SDS011;2121;48.062;7.850;2022-07-06T11:42:16;2.80;;;2.60;;
4214;SDS011;2121;48.062;7.850;2022-07-06T11:44:43;4.53;;;2.63;;
4214;SDS011;2121;48.062;7.850;2022-07-06T11:47:11;2.47;;;2.30;;
4214;SDS011;2121;48.062;7.850;2022-07-06T11:49:38;7.78;;;2.10;;
4214;SDS011;2121;48.062;7.850;2022-07-06T11:52:12;3.45;;;2.10;;
4214;SDS011;2121;48.062;7.850;2022-07-06T11:54:41;2.47;;;2.28;;
4214;SDS011;2121;48.062;7.850;2022-07-06T11:57:08;2.78;;;2.58;;
4214;SDS011;2121;48.062;7.850;2022-07-06T11:59:37;2.30;;;2.10;;
4214;SDS011;2121;48.062;7.850;2022-07-06T12:02:11;4.38;;;2.47;;
4214;SDS011;2121;48.062;7.850;2022-07-06T12:04:40;8.35;;;3.25;;
4214;SDS011;2121;48.062;7.850;2022-07-06T12:07:09;3.20;;;2.53;;
4214;SDS011;2121;48.062;7.850;2022-07-06T12:09:40;2.78;;;2.50;;
4214;SDS011;2121;48.062;7.850;2022-07-06T12:12:08;2.67;;;2.47;;
4214;SDS011;2121;48.062;7.850;2022-07-06T12:14:36;2.58;;;2.38;;
4214;SDS011;2121;48.062;7.850;2022-07-06T12:17:03;3.13;;;2.33;;
4214;SDS011;2121;48.062;7.850;2022-07-06T12:19:30;6.50;;;2.53;;
4214;SDS011;2121;48.062;7.850;2022-07-06T12:21:57;2.92;;;2.72;;
4214;SDS011;2121;48.062;7.850;2022-07-06T12:24:24;3.80;;;2.45;;
4214;SDS011;2121;48.062;7.850;2022-07-06T12:26:53;3.25;;;2.90;;
4214;SDS011;2121;48.062;7.850;2022-07-06T12:29:20;3.45;;;2.42;;
4214;SDS011;2121;48.062;7.850;2022-07-06T12:34:26;2.72;;;2.53;;
4214;SDS011;2121;48.062;7.850;2022-07-06T12:36:57;6.40;;;3.10;;
4214;SDS011;2121;48.062;7.850;2022-07-06T12:39:25;2.70;;;2.45;;
4214;SDS011;2121;48.062;7.850;2022-07-06T12:41:53;2.40;;;2.20;;
4214;SDS011;2121;48.062;7.850;2022-07-06T12:44:32;2.00;;;1.90;;
4214;SDS011;2121;48.062;7.850;2022-07-06T12:47:08;2.47;;;2.28;;
4214;SDS011;2121;48.062;7.850;2022-07-06T12:49:35;2.40;;;2.20;;
4214;SDS011;2121;48.062;7.850;2022-07-06T12:54:35;3.60;;;2.17;;
4214;SDS011;2121;48.062;7.850;2022-07-06T12:57:19;2.55;;;2.03;;
4214;SDS011;2121;48.062;7.850;2022-07-06T13:02:34;4.13;;;2.40;;
4214;SDS011;2121;48.062;7.850;2022-07-06T13:05:06;2.80;;;2.60;;
4214;SDS011;2121;48.062;7.850;2022-07-06T13:07:37;2.67;;;2.58;;
4214;SDS011;2121;48.062;7.850;2022-07-06T13:10:09;3.30;;;1.70;;
4214;SDS011;2121;48.062;7.850;2022-07-06T13:12:37;6.50;;;2.70;;
4214;SDS011;2121;48.062;7.850;2022-07-06T13:15:04;5.40;;;2.05;;
4214;SDS011;2121;48.062;7.850;2022-07-06T13:17:31;2.30;;;2.20;;
4214;SDS011;2121;48.062;7.850;2022-07-06T13:19:58;2.22;;;2.03;;
4214;SDS011;2121;48.062;7.850;2022-07-06T13:22:24;1.98;;;1.85;;
4214;SDS011;2121;48.062;7.850;2022-07-06T13:24:50;3.35;;;2.03;;
4214;SDS011;2121;48.062;7.850;2022-07-06T13:27:16;3.75;;;1.80;;
4214;SDS011;2121;48.062;7.850;2022-07-06T13:29:42;2.60;;;1.70;;
4214;SDS011;2121;48.062;7.850;2022-07-06T13:32:07;2.20;;;2.10;;
4214;SDS011;2121;48.062;7.850;2022-07-06T13:34:34;8.65;;;2.47;;
4214;SDS011;2121;48.062;7.850;2022-07-06T13:37:03;4.72;;;2.30;;
4214;SDS011;2121;48.062;7.850;2022-07-06T13:39:30;9.90;;;2.58;;
4214;SDS011;2121;48.062;7.850;2022-07-06T13:41:57;4.63;;;2.50;;
4214;SDS011;2121;48.062;7.850;2022-07-06T13:44:22;2.00;;;1.90;;
4214;SDS011;2121;48.062;7.850;2022-07-06T13:46:49;4.15;;;2.42;;
4214;SDS011;2121;48.062;7.850;2022-07-06T13:49:15;3.97;;;2.58;;
4214;SDS011;2121;48.062;7.850;2022-07-06T13:51:41;2.78;;;2.20;;
4214;SDS011;2121;48.062;7.850;2022-07-06T13:54:07;2.92;;;2.00;;
4214;SDS011;2121;48.062;7.850;2022-07-06T13:56:33;4.18;;;2.15;;
4214;SDS011;2121;48.062;7.850;2022-07-06T13:58:59;2.40;;;2.20;;
4214;SDS011;2121;48.062;7.850;2022-07-06T14:01:25;2.17;;;2.08;;
4214;SDS011;2121;48.062;7.850;2022-07-06T14:03:51;2.33;;;2.13;;
4214;SDS011;2121;48.062;7.850;2022-07-06T14:06:17;2.28;;;2.08;;
4214;SDS011;2121;48.062;7.850;2022-07-06T14:08:44;5.10;;;2.90;;
4214;SDS011;2121;48.062;7.850;2022-07-06T14:11:10;2.20;;;2.00;;
4214;SDS011;2121;48.062;7.850;2022-07-06T14:13:36;5.13;;;1.80;;
4214;SDS011;2121;48.062;7.850;2022-07-06T14:16:03;4.13;;;2.10;;
4214;SDS011;2121;48.062;7.850;2022-07-06T14:18:30;2.88;;;2.58;;
4214;SDS011;2121;48.062;7.850;2022-07-06T14:20:56;2.67;;;1.92;;
4214;SDS011;2121;48.062;7.850;2022-07-06T14:23:22;3.55;;;2.20;;
4214;SDS011;2121;48.062;7.850;2022-07-06T14:25:49;5.40;;;2.80;;
4214;SDS011;2121;48.062;7.850;2022-07-06T14:28:15;1.98;;;1.88;;
4214;SDS011;2121;48.062;7.850;2022-07-06T14:30:42;1.90;;;1.80;;
4214;SDS011;2121;48.062;7.850;2022-07-06T14:33:10;3.40;;;2.20;;
4214;SDS011;2121;48.062;7.850;2022-07-06T14:35:47;2.90;;;1.92;;
4214;SDS011;2121;48.062;7.850;2022-07-06T14:38:16;2.47;;;2.22;;
4214;SDS011;2121;48.062;7.850;2022-07-06T14:40:43;1.90;;;1.80;;
4214;SDS011;2121;48.062;7.850;2022-07-06T14:43:09;2.33;;;2.08;;
4214;SDS011;2121;48.062;7.850;2022-07-06T14:45:35;3.00;;;2.40;;
4214;SDS011;2121;48.062;7.850;2022-07-06T14:48:02;1.88;;;1.77;;
4214;SDS011;2121;48.062;7.850;2022-07-06T14:50:30;2.28;;;1.88;;
4214;SDS011;2121;48.062;7.850;2022-07-06T14:52:56;2.92;;;1.98;;
4214;SDS011;2121;48.062;7.850;2022-07-06T14:55:22;3.47;;;2.13;;
4214;SDS011;2121;48.062;7.850;2022-07-06T14:57:48;2.80;;;1.83;;
4214;SDS011;2121;48.062;7.850;2022-07-06T15:00:14;2.40;;;1.80;;
4214;SDS011;2121;48.062;7.850;2022-07-06T15:02:41;3.38;;;2.20;;
4214;SDS011;2121;48.062;7.850;2022-07-06T15:05:09;3.20;;;1.83;;
4214;SDS011;2121;48.062;7.850;2022-07-06T15:07:36;2.00;;;1.85;;
4214;SDS011;2121;48.062;7.850;2022-07-06T15:10:02;5.57;;;1.90;;
4214;SDS011;2121;48.062;7.850;2022-07-06T15:12:30;8.73;;;1.90;;
4214;SDS011;2121;48.062;7.850;2022-07-06T15:14:56;4.10;;;2.00;;
4214;SDS011;2121;48.062;7.850;2022-07-06T15:17:22;1.98;;;1.88;;
4214;SDS011;2121;48.062;7.850;2022-07-06T15:19:47;10.38;;;2.38;;
4214;SDS011;2121;48.062;7.850;2022-07-06T15:22:13;2.92;;;2.22;;
4214;SDS011;2121;48.062;7.850;2022-07-06T15:24:39;1.85;;;1.75;;
4214;SDS011;2121;48.062;7.850;2022-07-06T15:27:05;6.15;;;2.60;;
4214;SDS011;2121;48.062;7.850;2022-07-06T15:29:32;2.70;;;2.38;;
4214;SDS011;2121;48.062;7.850;2022-07-06T15:31:58;2.63;;;1.92;;
4214;SDS011;2121;48.062;7.850;2022-07-06T15:34:24;2.17;;;2.08;;
4214;SDS011;2121;48.062;7.850;2022-07-06T15:36:50;3.63;;;2.17;;